Time;durP1;ratioP1;P1;durP2;ratioP2;P2;SDS_P1;SDS_P2;PMS_P1;PMS_P2;Temp;Humidity;BMP_temperature;BMP_pressure;BME280_temperature;BME280_humidity;BME280_pressure;Samples;Min_cycle;Max_cycle;Signal;HPM_P1;HPM_P2
2024/04/20 00:01:25;;;;;;;0.40;0.35;;;7.90;71.00;;;2.66;100.00;95210.63;5282950;27;20009;-51
2024/04/20 00:03:51;;;;;;;0.32;0.32;;;7.70;70.80;;;2.50;100.00;95198.94;5286546;27;20024;-48
2024/04/20 00:06:17;;;;;;;1.58;0.30;;;7.60;70.60;;;2.48;100.00;95198.38;5286720;26;20001;-49
2024/04/20 00:08:47;;;;;;;0.30;0.30;;;7.50;70.60;;;2.32;100.00;95191.91;5281904;27;20010;-50
2024/04/20 00:11:13;;;;;;;2.80;0.40;;;7.40;70.70;;;2.27;100.00;95186.50;5286123;27;20012;-51
2024/04/20 00:13:40;;;;;;;0.47;0.32;;;7.30;70.80;;;2.26;100.00;95187.53;5278621;27;20010;-49
2024/04/20 00:16:07;;;;;;;0.77;0.50;;;7.20;70.80;;;2.21;100.00;95190.81;5278298;27;20025;-48
2024/04/20 00:18:39;;;;;;;0.28;0.28;;;7.20;70.90;;;2.19;100.00;95190.22;5279103;27;20025;-51
2024/04/20 00:21:05;;;;;;;0.77;0.40;;;7.10;71.00;;;2.18;100.00;95185.19;5284396;27;20006;-49
2024/04/20 00:23:31;;;;;;;0.55;0.50;;;7.10;71.10;;;2.15;100.00;95191.69;5282048;26;20653;-53
2024/04/20 00:25:56;;;;;;;0.55;0.43;;;7.10;71.10;;;2.13;100.00;95193.75;5285923;26;20014;-52
2024/04/20 00:28:23;;;;;;;1.25;0.50;;;7.10;71.20;;;2.13;100.00;95195.56;5284855;27;20041;-49
2024/04/20 00:31:02;;;;;;;1.42;1.00;;;7.10;71.30;;;2.07;100.00;95203.31;5289988;27;20024;-49
2024/04/20 00:33:29;;;;;;;2.63;1.70;;;7.00;71.40;;;2.08;100.00;95193.59;5284414;27;20028;-49
2024/04/20 00:35:55;;;;;;;1.98;1.48;;;7.00;71.50;;;2.07;100.00;95202.53;5279827;27;20473;-50
2024/04/20 00:38:21;;;;;;;4.60;1.50;;;7.00;71.60;;;2.10;100.00;95209.97;5287251;27;20017;-50
2024/04/20 00:40:58;;;;;;;1.85;1.13;;;7.00;71.70;;;2.00;100.00;95213.06;5287735;27;20021;-48
2024/04/20 00:43:25;;;;;;;3.00;1.20;;;7.00;71.70;;;1.92;100.00;95207.34;5281329;27;20009;-49
2024/04/20 00:45:53;;;;;;;6.43;1.40;;;6.80;71.50;;;1.94;100.00;95207.91;5283423;27;20080;-51
2024/04/20 00:48:22;;;;;;;4.93;1.17;;;6.80;71.60;;;1.95;100.00;95204.28;5283467;27;20044;-49
2024/04/20 00:50:51;;;;;;;4.22;1.40;;;6.80;71.70;;;1.91;100.00;95195.22;5280188;27;20010;-50
2024/04/20 00:53:21;;;;;;;4.03;1.38;;;6.80;71.70;;;1.87;100.00;95194.06;5285516;27;20017;-50
2024/04/20 00:55:50;;;;;;;3.70;1.30;;;6.80;71.70;;;1.87;100.00;95200.09;5297748;27;20010;-51
2024/04/20 00:58:19;;;;;;;3.40;1.30;;;6.80;71.70;;;1.87;100.00;95199.31;5298612;21;20001;-55
2024/04/20 01:00:47;;;;;;;1.25;1.00;;;6.70;71.60;;;1.82;100.00;95199.97;5295195;27;20001;-50
2024/04/20 01:03:13;;;;;;;3.38;1.77;;;6.70;71.70;;;1.85;100.00;95196.91;5286642;26;20428;-49
2024/04/20 01:05:39;;;;;;;3.13;1.92;;;6.70;71.70;;;1.85;100.00;95196.91;5281731;27;20083;-55
2024/04/20 01:08:06;;;;;;;2.95;1.92;;;6.80;71.70;;;1.84;100.00;95203.97;5294413;27;20009;-47
2024/04/20 01:10:33;;;;;;;3.00;2.20;;;6.70;71.70;;;1.87;100.00;95199.31;5298987;26;20014;-49
2024/04/20 01:13:08;;;;;;;3.10;1.80;;;6.80;71.80;;;1.87;100.00;95199.31;5284296;26;20013;-51
2024/04/20 01:15:35;;;;;;;3.83;1.92;;;6.80;71.80;;;1.87;100.00;95204.56;5285583;27;20017;-53
2024/04/20 01:18:02;;;;;;;5.10;1.88;;;6.80;71.80;;;1.83;100.00;95196.31;5290201;27;20018;-53
2024/04/20 01:20:30;;;;;;;4.75;1.70;;;6.80;71.70;;;1.82;100.00;95195.53;5277497;27;20819;-53
2024/04/20 01:23:00;;;;;;;32.85;2.70;;;6.80;71.60;;;1.80;100.00;95199.38;5281955;27;20006;-52
2024/04/20 01:25:28;;;;;;;34.13;3.58;;;6.80;71.50;;;1.76;100.00;95206.09;5294187;27;20341;-53
2024/04/20 01:27:54;;;;;;;4.80;2.10;;;6.80;71.50;;;1.77;100.00;95205.06;5280893;27;20024;-52
2024/04/20 01:30:20;;;;;;;24.15;2.97;;;6.80;71.50;;;1.78;100.00;95211.91;5293802;27;20048;-53
2024/04/20 01:32:46;;;;;;;2.65;2.15;;;6.70;71.40;;;1.70;100.00;95204.34;5278199;27;20006;-51
2024/04/20 01:35:12;;;;;;;101.18;6.03;;;6.70;71.30;;;1.72;100.00;95205.72;5253996;27;20015;-55
2024/04/20 01:37:37;;;;;;;2.53;1.83;;;6.70;71.20;;;1.65;100.00;95204.97;5284756;27;20356;-50
2024/04/20 01:40:04;;;;;;;2.70;1.70;;;6.70;71.20;;;1.63;100.00;95204.41;5288559;27;20483;-49
2024/04/20 01:42:29;;;;;;;4.90;1.83;;;6.70;71.20;;;1.62;100.00;95206.22;5294457;27;20437;-49
2024/04/20 01:44:55;;;;;;;3.65;1.90;;;6.70;71.20;;;1.63;100.00;95209.66;5291358;27;20001;-51
2024/04/20 01:47:28;;;;;;;20.08;2.70;;;6.70;71.20;;;1.63;100.00;95214.91;5294590;27;20041;-52
2024/04/20 01:49:57;;;;;;;8.75;2.53;;;6.70;71.20;;;1.61;100.00;95216.94;5283959;27;20024;-52
2024/04/20 01:52:23;;;;;;;7.22;2.38;;;6.60;71.20;;;1.59;100.00;95211.91;5282489;27;20014;-53
2024/04/20 01:54:49;;;;;;;3.88;2.63;;;6.60;72.00;;;1.58;100.00;95212.13;5285451;27;20456;-51
2024/04/20 01:57:15;;;;;;;4.32;2.92;;;6.60;71.20;;;1.52;100.00;95210.38;5294289;27;20005;-56
2024/04/20 01:59:41;;;;;;;7.60;3.17;;;6.60;71.20;;;1.53;100.00;95210.13;5299730;27;20374;-53
2024/04/20 02:02:07;;;;;;;25.02;3.58;;;6.60;71.20;;;1.53;100.00;95209.34;5289224;27;20080;-53
2024/04/20 02:04:33;;;;;;;4.25;2.92;;;6.60;71.20;;;1.51;100.00;95214.81;5283505;27;20015;-54
2024/04/20 02:06:59;;;;;;;9.48;2.63;;;6.60;71.20;;;1.48;100.00;95228.38;5287970;27;20001;-53
2024/04/20 02:09:24;;;;;;;13.50;3.13;;;6.60;71.20;;;1.49;100.00;95226.56;5291305;27;20480;-54
2024/04/20 02:11:50;;;;;;;35.67;4.30;;;6.50;71.20;;;1.49;100.00;95229.19;5279462;27;20012;-49
2024/04/20 02:14:16;;;;;;;8.23;3.45;;;6.50;71.20;;;1.49;100.00;95239.69;5282541;27;20016;-52
2024/04/20 02:16:42;;;;;;;31.88;4.25;;;6.50;71.20;;;1.48;100.00;95235.44;5295448;27;20002;-53
2024/04/20 02:19:08;;;;;;;6.65;3.38;;;6.50;71.20;;;1.46;100.00;95237.47;5287294;27;20084;-49
2024/04/20 02:21:33;;;;;;;6.70;3.45;;;6.50;71.20;;;1.46;100.00;95243.53;5286910;27;20005;-49
2024/04/20 02:23:59;;;;;;;9.07;3.28;;;6.50;71.20;;;1.45;100.00;95247.19;5287911;27;20009;-51
2024/04/20 02:26:26;;;;;;;49.40;5.10;;;6.50;71.10;;;1.44;100.00;95245.56;5292486;27;20005;-52
2024/04/20 02:28:52;;;;;;;7.65;3.53;;;6.60;71.10;;;1.42;100.00;95247.63;5288291;27;20001;-51
2024/04/20 02:31:18;;;;;;;6.97;3.72;;;6.60;71.10;;;1.42;100.00;95252.88;5290892;27;20083;-54
2024/04/20 02:33:44;;;;;;;8.73;4.03;;;6.50;71.00;;;1.44;100.00;95247.38;5281623;27;20013;-53
2024/04/20 02:36:10;;;;;;;10.75;4.75;;;6.50;71.00;;;1.44;100.00;95256.06;5287032;27;20006;-53
2024/04/20 02:38:36;;;;;;;8.45;5.20;;;6.60;71.10;;;1.40;100.00;95257.50;5280641;27;19998;-48
2024/04/20 02:41:02;;;;;;;8.48;4.57;;;6.60;71.00;;;1.42;100.00;95250.25;5286266;27;20495;-55
2024/04/20 02:43:28;;;;;;;9.90;4.90;;;6.60;70.90;;;1.43;100.00;95262.34;5294611;27;20013;-55
2024/04/20 02:45:53;;;;;;;21.75;5.88;;;6.60;70.90;;;1.44;100.00;95250.81;5275496;27;20010;-53
2024/04/20 02:48:21;;;;;;;79.93;8.77;;;6.60;70.90;;;1.42;100.00;95252.88;5284822;27;20375;-52
2024/04/20 02:50:47;;;;;;;15.15;6.65;;;6.60;70.80;;;1.37;100.00;95253.50;5279117;27;20002;-53
2024/04/20 02:53:13;;;;;;;17.48;6.80;;;6.60;71.50;;;1.29;100.00;95251.16;5285413;27;20037;-53
2024/04/20 02:55:39;;;;;;;18.35;6.40;;;6.50;70.60;;;1.24;100.00;95261.47;5287652;27;20022;-48
2024/04/20 02:58:05;;;;;;;107.18;10.40;;;6.50;70.50;;;1.23;100.00;95253.84;5285460;26;20010;-52
2024/04/20 03:00:30;;;;;;;21.15;6.60;;;6.40;70.40;;;1.18;100.00;95256.28;5290128;27;20002;-51
2024/04/20 03:02:56;;;;;;;20.70;6.85;;;6.30;70.30;;;1.11;100.00;95256.34;5284611;27;20017;-50
2024/04/20 03:05:22;;;;;;;18.65;6.30;;;6.30;70.40;;;1.05;100.00;95265.06;5292087;27;20364;-49
2024/04/20 03:07:48;;;;;;;17.25;6.18;;;6.20;70.40;;;1.01;100.00;95264.69;5284866;27;20081;-52
2024/04/20 03:10:14;;;;;;;13.05;6.07;;;6.20;70.40;;;1.01;100.00;95277.78;5271922;27;20460;-48
2024/04/20 03:12:40;;;;;;;9.68;4.82;;;6.20;71.30;;;0.97;100.00;95284.47;5287931;27;20016;-54
2024/04/20 03:15:06;;;;;;;17.60;5.32;;;6.10;70.50;;;0.95;100.00;95280.47;5289697;27;20087;-54
2024/04/20 03:17:32;;;;;;;15.50;4.60;;;6.10;70.60;;;0.91;100.00;95274.84;5286476;27;20053;-55
2024/04/20 03:19:57;;;;;;;10.68;4.50;;;6.10;70.60;;;0.90;100.00;95283.69;5277523;27;20010;-53
2024/04/20 03:22:23;;;;;;;7.13;3.97;;;6.10;70.60;;;0.93;100.00;95285.91;5285175;27;20009;-55
2024/04/20 03:24:49;;;;;;;6.30;3.88;;;6.10;70.80;;;0.99;100.00;95279.00;5296278;27;20015;-51
2024/04/20 03:27:15;;;;;;;10.02;4.00;;;6.10;70.90;;;1.01;100.00;95283.03;5296625;27;20456;-55
2024/04/20 03:29:41;;;;;;;8.00;3.63;;;6.10;70.90;;;0.99;100.00;95284.25;5287426;27;20016;-50
2024/04/20 03:32:07;;;;;;;8.32;3.80;;;6.10;71.00;;;1.04;100.00;95287.88;5280336;27;20480;-52
2024/04/20 03:34:33;;;;;;;28.63;4.95;;;6.20;71.10;;;1.08;100.00;95289.03;5283122;27;20017;-54
2024/04/20 03:36:58;;;;;;;7.30;3.40;;;6.20;71.10;;;1.03;100.00;95293.31;5282815;27;20002;-51
2024/04/20 03:39:24;;;;;;;8.02;4.22;;;6.20;71.10;;;1.11;100.00;95288.63;5296358;27;20053;-51
2024/04/20 03:41:50;;;;;;;9.57;3.95;;;6.20;71.10;;;1.13;100.00;95291.84;5292805;27;20020;-49
2024/04/20 03:44:16;;;;;;;26.42;4.65;;;6.20;71.10;;;1.16;100.00;95298.50;5287101;27;20674;-53
2024/04/20 03:46:42;;;;;;;18.83;4.00;;;6.30;71.10;;;1.20;100.00;95298.88;5257981;27;20079;-52
2024/04/20 03:49:08;;;;;;;8.30;4.15;;;6.30;71.10;;;1.19;100.00;95294.63;5298445;27;20013;-48
2024/04/20 03:51:34;;;;;;;8.00;4.03;;;6.30;71.10;;;1.17;100.00;95297.47;5292510;27;20392;-48
2024/04/20 03:54:00;;;;;;;9.70;4.63;;;6.30;71.00;;;1.14;100.00;95303.94;5289571;27;20340;-50
2024/04/20 03:56:28;;;;;;;8.82;4.90;;;6.30;70.90;;;1.13;100.00;95298.91;5294050;27;20005;-51
2024/04/20 03:58:54;;;;;;;11.90;4.88;;;6.30;70.90;;;1.15;100.00;95302.91;5286907;27;20005;-52
2024/04/20 04:01:20;;;;;;;49.10;6.75;;;6.30;70.90;;;1.19;100.00;95294.63;5288246;27;20026;-50
2024/04/20 04:03:45;;;;;;;11.10;4.65;;;6.30;70.90;;;1.18;100.00;95300.88;5297698;27;20016;-53
2024/04/20 04:06:11;;;;;;;6.90;4.20;;;6.30;70.90;;;1.17;100.00;95294.84;5288654;27;20021;-53
2024/04/20 04:08:37;;;;;;;15.93;4.78;;;6.30;70.90;;;1.17;100.00;95312.41;5288552;27;20021;-54
2024/04/20 04:11:03;;;;;;;7.57;4.68;;;6.30;70.90;;;1.18;100.00;95314.81;5290781;27;20456;-53
2024/04/20 04:13:29;;;;;;;7.70;4.60;;;6.30;70.90;;;1.15;100.00;95312.59;5292350;27;20038;-51
2024/04/20 04:15:55;;;;;;;9.70;4.97;;;6.30;70.80;;;1.07;100.00;95310.25;5297501;27;20001;-51
2024/04/20 04:18:21;;;;;;;7.65;4.72;;;6.30;70.80;;;1.10;100.00;95317.69;5292319;27;20017;-51
2024/04/20 04:20:48;;;;;;;8.98;4.72;;;6.30;71.50;;;1.11;100.00;95325.34;5279572;26;20538;-49
2024/04/20 04:23:14;;;;;;;10.85;5.00;;;6.20;70.70;;;1.09;100.00;95330.00;5298298;27;20460;-52
2024/04/20 04:25:40;;;;;;;10.68;5.22;;;6.20;70.70;;;1.07;100.00;95334.66;5296363;27;20083;-51
2024/04/20 04:28:06;;;;;;;10.40;5.55;;;6.20;70.80;;;1.10;100.00;95342.09;5296195;27;20016;-55
2024/04/20 04:30:35;;;;;;;8.55;4.95;;;6.20;70.90;;;1.11;100.00;95340.28;5281329;26;20016;-50
2024/04/20 04:33:01;;;;;;;9.75;5.63;;;6.30;70.90;;;1.13;100.00;95338.28;5290995;26;20005;-50
2024/04/20 04:35:27;;;;;;;9.32;5.03;;;6.30;70.90;;;1.13;100.00;95341.69;5294032;27;20017;-48
2024/04/20 04:37:53;;;;;;;20.15;6.18;;;6.30;70.80;;;1.15;100.00;95346.72;5275374;27;20046;-48
2024/04/20 04:40:19;;;;;;;18.25;6.43;;;6.30;70.80;;;1.15;100.00;95349.34;5295830;27;20017;-52
2024/04/20 04:42:45;;;;;;;9.65;4.78;;;6.30;70.80;;;1.16;100.00;95356.22;5286011;26;20368;-52
2024/04/20 04:45:11;;;;;;;11.95;4.78;;;6.30;70.90;;;1.20;100.00;95359.22;5287362;27;20017;-49
2024/04/20 04:47:37;;;;;;;6.90;3.90;;;6.30;70.80;;;1.17;100.00;95357.00;5290097;27;20418;-51
2024/04/20 04:50:04;;;;;;;9.18;4.03;;;6.40;70.90;;;1.20;100.00;95357.38;5296994;27;20005;-49
2024/04/20 04:52:31;;;;;;;8.57;4.65;;;6.40;70.80;;;1.20;100.00;95354.75;5291715;27;20019;-51
2024/04/20 04:54:57;;;;;;;9.93;4.53;;;6.40;70.70;;;1.23;100.00;95366.66;5298326;27;20433;-50
2024/04/20 04:57:23;;;;;;;8.98;4.80;;;6.40;70.70;;;1.23;100.00;95372.72;5284732;27;20013;-53
2024/04/20 04:59:48;;;;;;;9.63;4.28;;;6.40;70.70;;;1.13;100.00;95372.38;5283414;27;20006;-52
2024/04/20 05:02:14;;;;;;;14.88;4.28;;;6.40;70.70;;;1.17;100.00;95372.75;5279684;27;20100;-53
2024/04/20 05:04:41;;;;;;;12.15;4.43;;;6.40;70.70;;;1.21;100.00;95377.34;5292053;27;20005;-53
2024/04/20 05:07:07;;;;;;;8.95;3.88;;;6.40;70.70;;;1.18;100.00;95382.22;5277421;27;20006;-55
2024/04/20 05:09:33;;;;;;;8.65;3.70;;;6.50;70.80;;;1.15;100.00;95380.81;5280790;27;20083;-48
2024/04/20 05:11:59;;;;;;;8.05;3.90;;;6.50;70.70;;;1.18;100.00;95384.84;5283653;27;20469;-54
2024/04/20 05:14:25;;;;;;;10.82;3.85;;;6.50;70.70;;;1.22;100.00;95392.06;5281273;27;20006;-54
2024/04/20 05:16:51;;;;;;;10.07;4.03;;;6.50;70.70;;;1.25;100.00;95385.59;5286425;27;20010;-48
2024/04/20 05:19:17;;;;;;;8.85;4.18;;;6.50;70.70;;;1.27;100.00;95384.38;5277093;27;20013;-50
2024/04/20 05:21:42;;;;;;;8.35;3.72;;;6.60;70.70;;;1.29;100.00;95379.75;5287837;27;20013;-52
2024/04/20 05:24:08;;;;;;;7.25;3.90;;;6.60;70.60;;;1.31;100.00;95382.94;5276493;27;20006;-54
2024/04/20 05:26:34;;;;;;;6.90;4.22;;;6.60;70.60;;;1.36;100.00;95385.75;5280391;27;20087;-51
2024/04/20 05:29:00;;;;;;;8.90;3.92;;;6.70;70.60;;;1.39;100.00;95389.78;5282882;27;20005;-53
2024/04/20 05:31:26;;;;;;;8.95;4.28;;;6.70;71.30;;;1.39;100.00;95390.56;5285204;27;20377;-52
2024/04/20 05:33:52;;;;;;;13.93;4.45;;;6.80;70.50;;;1.43;100.00;95382.28;5277191;27;20363;-49
2024/04/20 05:36:18;;;;;;;12.27;4.72;;;6.80;70.40;;;1.50;100.00;95388.28;5281324;27;20076;-55
2024/04/20 05:38:43;;;;;;;7.40;4.22;;;6.80;70.40;;;1.53;100.00;95395.72;5275569;27;20363;-48
2024/04/20 05:41:10;;;;;;;8.05;4.10;;;6.90;70.40;;;1.49;100.00;95410.31;5284662;27;20020;-48
2024/04/20 05:43:36;;;;;;;10.93;4.38;;;6.90;70.40;;;1.39;100.00;95419.44;5289013;27;20411;-54
2024/04/20 05:46:03;;;;;;;10.05;4.57;;;6.90;70.30;;;1.37;100.00;95431.16;5275880;27;20002;-48
2024/04/20 05:48:29;;;;;;;10.63;4.75;;;6.90;70.30;;;1.37;100.00;95426.72;5280747;27;20432;-50
2024/04/20 05:50:55;;;;;;;9.70;4.60;;;7.00;70.40;;;1.56;100.00;95432.88;5278019;27;20023;-51
2024/04/20 05:53:21;;;;;;;9.13;4.50;;;7.00;70.40;;;1.68;100.00;95433.00;5286474;27;20013;-50
2024/04/20 05:55:47;;;;;;;11.70;4.57;;;7.10;70.50;;;1.76;100.00;95442.47;5286149;27;20006;-49
2024/04/20 05:58:12;;;;;;;14.85;4.75;;;7.20;70.60;;;1.83;100.00;95443.22;5295246;27;20005;-51
2024/04/20 06:00:39;;;;;;;10.85;4.60;;;7.30;70.50;;;1.91;100.00;95458.69;5289313;27;19998;-48
2024/04/20 06:03:05;;;;;;;11.18;5.47;;;7.30;70.40;;;1.99;100.00;95458.44;5286204;27;20464;-48
2024/04/20 06:05:31;;;;;;;12.20;4.75;;;7.40;70.50;;;2.07;100.00;95454.75;5287088;27;20010;-48
2024/04/20 06:07:57;;;;;;;10.68;4.80;;;7.60;70.50;;;2.18;100.00;95459.31;5272590;27;20013;-52
2024/04/20 06:10:22;;;;;;;9.68;4.28;;;7.70;70.50;;;2.27;100.00;95465.91;5279930;27;20073;-50
2024/04/20 06:12:48;;;;;;;8.43;4.45;;;7.80;70.40;;;2.39;100.00;95468.66;5275141;27;20353;-49
2024/04/20 06:15:14;;;;;;;10.18;4.90;;;7.90;70.30;;;2.46;100.00;95472.00;5285081;27;19997;-49
2024/04/20 06:17:40;;;;;;;8.75;4.50;;;8.00;70.30;;;2.55;100.00;95469.91;5283306;27;20017;-51
2024/04/20 06:20:07;;;;;;;10.05;4.57;;;8.20;70.20;;;2.61;100.00;95473.50;5271682;27;20017;-50
2024/04/20 06:22:32;;;;;;;9.52;4.47;;;8.20;70.10;;;2.69;100.00;95473.22;5280930;27;20021;-53
2024/04/20 06:24:58;;;;;;;9.73;4.53;;;8.40;70.10;;;2.74;100.00;95476.00;5277042;27;20481;-48
2024/04/20 06:27:25;;;;;;;7.32;4.20;;;8.50;69.90;;;2.80;100.00;95477.75;5291984;27;20041;-48
2024/04/20 06:29:51;;;;;;;7.68;4.25;;;8.50;69.70;;;2.84;100.00;95491.28;5286553;27;20021;-48
2024/04/20 06:32:17;;;;;;;11.98;4.30;;;8.60;69.50;;;2.82;100.00;95488.88;5288193;27;20002;-48
2024/04/20 06:34:43;;;;;;;12.35;4.05;;;8.60;69.40;;;2.91;100.00;95495.44;5294579;27;20005;-48
2024/04/20 06:37:11;;;;;;;11.15;4.95;;;8.70;69.50;;;2.95;100.00;95490.56;5295109;27;20028;-48
2024/04/20 06:39:37;;;;;;;9.98;4.82;;;8.70;69.40;;;2.94;100.00;95491.56;5285120;27;20013;-54
2024/04/20 06:42:03;;;;;;;10.13;5.22;;;8.70;69.30;;;3.01;100.00;95492.34;5291632;27;20079;-53
2024/04/20 06:44:29;;;;;;;9.30;5.13;;;8.70;69.30;;;3.07;100.00;95499.34;5279598;27;20006;-53
2024/04/20 06:46:56;;;;;;;9.27;5.10;;;8.80;69.30;;;3.13;100.00;95500.28;5288267;27;20294;-54
2024/04/20 06:49:22;;;;;;;8.07;4.72;;;8.80;69.40;;;3.23;100.00;95503.22;5280979;27;20009;-55
2024/04/20 06:51:48;;;;;;;11.18;4.88;;;8.90;69.40;;;3.32;100.00;95508.97;5286370;27;20079;-55
2024/04/20 06:54:14;;;;;;;11.27;5.10;;;9.00;69.50;;;3.29;100.00;95510.25;5281082;27;19998;-54
2024/04/20 06:56:40;;;;;;;10.25;5.18;;;9.00;69.40;;;3.34;100.00;95502.47;5280908;27;20050;-56
2024/04/20 06:59:06;;;;;;;9.48;5.60;;;9.10;69.40;;;3.42;100.00;95510.09;5283763;27;20006;-55
2024/04/20 07:01:32;;;;;;;11.65;5.30;;;9.20;69.30;;;3.54;100.00;95514.59;5288696;27;20451;-54
2024/04/20 07:03:58;;;;;;;13.20;5.32;;;9.30;69.40;;;3.55;100.00;95516.22;5293291;27;20001;-51
2024/04/20 07:06:23;;;;;;;19.08;5.47;;;9.30;69.30;;;3.56;100.00;95513.34;5287178;27;20020;-48
2024/04/20 07:08:49;;;;;;;12.68;5.50;;;9.30;69.20;;;3.57;100.00;95517.56;5284662;27;20013;-53
2024/04/20 07:11:15;;;;;;;13.77;5.97;;;9.30;69.10;;;3.60;100.00;95521.59;5271049;27;20006;-54
2024/04/20 07:13:42;;;;;;;18.70;6.57;;;9.30;69.10;;;3.58;100.00;95524.47;5290319;27;20045;-51
2024/04/20 07:16:08;;;;;;;14.25;6.30;;;9.30;69.10;;;3.66;100.00;95526.78;5282861;27;20246;-54
2024/04/20 07:18:34;;;;;;;13.13;5.80;;;9.30;69.10;;;3.68;100.00;95530.00;5277602;27;20091;-50
2024/04/20 07:21:07;;;;;;;18.48;5.82;;;9.30;69.10;;;3.75;100.00;95539.66;5296479;27;20005;-51
2024/04/20 07:23:34;;;;;;;18.05;6.05;;;9.30;69.30;;;3.68;100.00;95534.47;5296726;27;21531;-52
2024/04/20 07:26:06;;;;;;;16.50;7.05;;;9.30;69.20;;;3.63;100.00;95539.59;5268553;27;20088;-51
2024/04/20 07:28:32;;;;;;;17.43;6.70;;;9.30;69.10;;;3.61;100.00;95539.84;5278974;27;20005;-53
2024/04/20 07:30:58;;;;;;;18.65;7.45;;;9.30;69.00;;;3.61;100.00;95545.09;5285775;27;20561;-50
2024/04/20 07:33:24;;;;;;;17.08;6.63;;;9.20;69.90;;;3.61;100.00;95541.66;5284884;27;20022;-50
2024/04/20 07:35:52;;;;;;;24.25;7.20;;;9.20;69.10;;;3.67;100.00;95551.31;5288591;27;20017;-48
2024/04/20 07:38:17;;;;;;;13.25;6.28;;;9.10;69.30;;;3.61;100.00;95544.31;5271547;27;20569;-50
2024/04/20 07:40:43;;;;;;;15.40;6.22;;;9.10;69.40;;;3.52;100.00;95556.16;5292143;27;20005;-52
2024/04/20 07:43:09;;;;;;;17.08;6.38;;;9.00;69.30;;;3.53;100.00;95553.28;5290978;27;20009;-49
2024/04/20 07:45:35;;;;;;;17.83;5.68;;;8.90;69.30;;;3.46;100.00;95560.47;5263795;27;20021;-49
2024/04/20 07:48:01;;;;;;;19.90;5.70;;;8.90;69.50;;;3.40;100.00;95556.09;5285263;27;20387;-48
2024/04/20 07:50:27;;;;;;;12.95;4.78;;;8.80;69.50;;;3.29;100.00;95562.91;5294303;27;20150;-47
2024/04/20 07:52:53;;;;;;;16.63;4.75;;;8.80;69.50;;;3.34;100.00;95568.28;5282800;27;20017;-50
2024/04/20 07:55:19;;;;;;;18.20;5.13;;;8.70;69.60;;;3.23;100.00;95569.03;5285292;27;20021;-51
2024/04/20 07:57:46;;;;;;;21.02;5.78;;;8.70;69.70;;;3.25;100.00;95583.56;5291833;27;20086;-52
2024/04/20 08:00:13;;;;;;;18.80;5.18;;;8.60;69.70;;;3.22;100.00;95583.22;5286918;27;20020;-47
2024/04/20 08:02:40;;;;;;;80.22;7.72;;;8.60;69.80;;;3.32;100.00;95580.91;5278640;27;20235;-47
2024/04/20 08:05:06;;;;;;;14.05;4.35;;;8.70;70.00;;;3.38;100.00;95584.47;5276781;27;20020;-51
2024/04/20 08:07:34;;;;;;;17.65;4.35;;;8.80;70.00;;;3.45;100.00;95593.13;5278907;27;20040;-47
2024/04/20 08:09:59;;;;;;;12.40;4.13;;;8.90;70.00;;;3.53;100.00;95592.81;5268259;27;20342;-52
2024/04/20 08:12:26;;;;;;;13.30;3.88;;;9.00;69.90;;;3.54;100.00;95597.06;5291741;27;20079;-52
2024/04/20 08:14:52;;;;;;;59.50;6.95;;;9.20;69.80;;;3.58;100.00;95597.44;5296004;27;20017;-48
2024/04/20 08:17:18;;;;;;;14.48;3.60;;;9.30;69.70;;;3.68;100.00;95603.78;5299035;27;20020;-48
2024/04/20 08:19:46;;;;;;;14.90;3.72;;;9.40;69.60;;;3.78;100.00;95600.63;5277956;27;20009;-54
2024/04/20 08:22:11;;;;;;;9.85;3.00;;;9.50;69.60;;;3.78;100.00;95602.47;5280505;27;20012;-48
2024/04/20 08:24:37;;;;;;;11.13;3.40;;;9.60;69.40;;;3.79;100.00;95609.31;5278982;27;20005;-53
2024/04/20 08:27:03;;;;;;;6.68;2.80;;;9.80;69.10;;;3.72;100.00;95615.47;5278093;27;20079;-51
2024/04/20 08:29:29;;;;;;;7.68;2.92;;;9.90;68.90;;;3.85;100.00;95608.44;5279553;27;20021;-51
2024/04/20 08:31:55;;;;;;;11.52;3.30;;;10.00;68.60;;;4.04;100.00;95614.50;5276908;27;20048;-47
2024/04/20 08:34:21;;;;;;;8.48;3.20;;;10.10;68.70;;;4.25;100.00;95618.50;5284007;27;20053;-52
2024/04/20 08:36:48;;;;;;;8.32;3.00;;;10.30;68.70;;;4.34;100.00;95622.41;5264437;27;20484;-51
2024/04/20 08:39:14;;;;;;;10.07;3.30;;;10.50;68.70;;;4.53;100.00;95626.59;5286546;27;20015;-53
2024/04/20 08:41:56;;;;;;;12.02;3.78;;;10.70;68.40;;;4.57;100.00;95619.03;5297228;27;20009;-50
2024/04/20 08:44:27;;;;;;;7.88;3.90;;;10.90;68.20;;;4.79;100.00;95620.13;5278040;27;20115;-53
2024/04/20 08:46:53;;;;;;;10.32;3.88;;;11.20;68.00;;;5.03;100.00;95628.09;5277393;27;20012;-54
2024/04/20 08:49:26;;;;;;;11.00;4.13;;;11.50;68.00;;;5.13;100.00;95632.81;5277677;27;20002;-50
2024/04/20 08:51:54;;;;;;;9.52;3.20;;;11.70;67.60;;;4.93;100.00;95636.56;5289151;27;20006;-52
2024/04/20 08:54:23;;;;;;;6.18;3.45;;;11.80;66.90;;;5.07;100.00;95634.50;5277030;27;20046;-51
2024/04/20 08:56:49;;;;;;;9.38;3.72;;;11.70;66.60;;;4.94;100.00;95632.09;5280090;27;20001;-49
2024/04/20 08:59:15;;;;;;;10.73;3.15;;;11.60;66.60;;;4.81;100.00;95635.75;5284982;26;20001;-57
2024/04/20 09:01:46;;;;;;;5.70;2.83;;;11.50;66.30;;;4.76;100.00;95641.69;5293155;26;20081;-57
2024/04/20 09:04:14;;;;;;;7.13;3.67;;;11.40;65.90;;;4.73;100.00;95642.16;5288931;26;20005;-56
2024/04/20 09:06:40;;;;;;;7.97;3.55;;;11.30;66.00;;;4.85;100.00;95644.81;5284629;27;20244;-51
2024/04/20 09:09:09;;;;;;;5.82;3.47;;;11.20;66.00;;;4.69;100.00;95638.34;5290214;27;20019;-54
2024/04/20 09:11:35;;;;;;;6.38;2.78;;;11.20;66.10;;;4.78;100.00;95647.56;5286597;27;20037;-53
2024/04/20 09:14:02;;;;;;;3.60;2.22;;;11.20;66.10;;;4.74;100.00;95646.41;5290602;27;20020;-53
2024/04/20 09:16:32;;;;;;;6.97;2.63;;;11.40;65.90;;;4.97;100.00;95656.19;5293130;27;20508;-55
2024/04/20 09:19:03;;;;;;;5.82;2.63;;;11.40;66.00;;;5.08;100.00;95654.63;5288973;27;20015;-54
2024/04/20 09:21:29;;;;;;;4.65;2.50;;;11.50;66.10;;;5.26;100.00;95659.78;5281063;27;20002;-58
2024/04/20 09:24:06;;;;;;;4.30;2.72;;;11.70;66.00;;;5.46;100.00;95650.72;5287788;27;20069;-53
2024/04/20 09:26:34;;;;;;;4.38;3.45;;;12.00;66.00;;;5.50;100.00;95657.16;5291670;27;20016;-57
2024/04/20 09:29:01;;;;;;;6.50;3.45;;;12.20;65.70;;;5.62;100.00;95646.59;5284575;27;19997;-58
2024/04/20 09:31:27;;;;;;;4.28;2.80;;;12.50;65.30;;;5.72;100.00;95657.38;5294334;27;20005;-57
2024/04/20 09:34:03;;;;;;;7.35;3.20;;;12.70;64.80;;;5.97;100.00;95659.78;5296262;27;20356;-56
2024/04/20 09:36:31;;;;;;;5.97;3.20;;;12.90;64.70;;;5.89;100.00;95657.44;5278615;27;20024;-57
2024/04/20 09:38:57;;;;;;;6.72;2.95;;;13.00;64.20;;;6.03;100.00;95654.34;5295857;27;20085;-53
2024/04/20 09:41:29;;;;;;;7.53;3.50;;;13.00;64.10;;;6.02;100.00;95654.59;5297250;27;20013;-51
2024/04/20 09:44:02;;;;;;;5.75;2.42;;;13.10;63.60;;;6.01;100.00;95653.78;5282959;27;20345;-52
2024/04/20 09:46:32;;;;;;;5.53;2.60;;;13.10;63.30;;;5.97;100.00;95657.13;5295487;26;20376;-51
2024/04/20 09:49:07;;;;;;;5.57;2.42;;;13.20;63.00;;;6.03;100.00;95664.13;5284515;27;20005;-49
2024/04/20 09:51:54;;;;;;;3.47;2.60;;;13.30;62.70;;;6.17;100.00;95665.50;5290497;27;20020;-52
2024/04/20 09:54:30;;;;;;;5.22;2.70;;;13.40;62.60;;;6.48;100.00;95676.63;5280608;27;20028;-49
2024/04/20 09:56:59;;;;;;;4.15;2.40;;;13.60;62.50;;;6.65;99.62;95671.41;5286280;27;20570;-49
2024/04/20 09:59:28;;;;;;;4.20;2.40;;;13.90;62.10;;;7.03;100.00;95659.34;5278356;27;20068;-52
2024/04/20 10:01:56;;;;;;;3.67;2.47;;;14.30;61.80;;;7.34;100.00;95656.13;5284644;27;20021;-52
2024/04/20 10:04:24;;;;;;;7.13;2.47;;;14.70;61.70;;;7.88;100.00;95653.72;5271658;27;20020;-48
2024/04/20 10:06:53;;;;;;;3.20;2.25;;;15.10;61.50;;;8.07;95.28;95650.75;5282045;27;20024;-48
2024/04/20 10:09:20;;;;;;;3.17;2.00;;;15.70;60.90;;;8.42;89.59;95653.06;5285144;26;20096;-49
2024/04/20 10:11:47;;;;;;;2.70;1.67;;;16.10;60.00;;;8.68;85.52;95651.50;5286412;27;20450;-52
2024/04/20 10:14:14;;;;;;;3.63;1.90;;;16.40;59.70;;;8.60;89.83;95643.16;5290732;27;20080;-50
2024/04/20 10:16:41;;;;;;;4.68;1.85;;;16.40;59.00;;;8.19;86.30;95648.00;5288673;27;19998;-51
2024/04/20 10:19:07;;;;;;;1.95;1.40;;;16.30;58.60;;;8.17;87.96;95650.88;5290890;27;20001;-50
2024/04/20 10:21:33;;;;;;;5.97;1.92;;;16.30;57.80;;;8.44;88.37;95650.97;5285732;27;20016;-49